sensor_id;sensor_type;location;lat;lon;timestamp;temperature;humidity
4548;DHT22;2286;51.570;7.090;2022-08-01T00:02:22;19.00;99.90
4548;DHT22;2286;51.570;7.090;2022-08-01T00:04:49;19.00;99.90
4548;DHT22;2286;51.570;7.090;2022-08-01T00:07:16;19.00;99.90
4548;DHT22;2286;51.570;7.090;2022-08-01T00:09:43;19.00;99.90
4548;DHT22;2286;51.570;7.090;2022-08-01T00:12:10;19.00;99.90
4548;DHT22;2286;51.570;7.090;2022-08-01T00:14:37;19.00;99.90
4548;DHT22;2286;51.570;7.090;2022-08-01T00:17:04;19.00;99.90
4548;DHT22;2286;51.570;7.090;2022-08-01T00:19:32;19.00;99.90
4548;DHT22;2286;51.570;7.090;2022-08-01T00:22:00;19.00;99.90
4548;DHT22;2286;51.570;7.090;2022-08-01T00:24:26;19.00;99.90
4548;DHT22;2286;51.570;7.090;2022-08-01T00:26:53;18.90;99.90
4548;DHT22;2286;51.570;7.090;2022-08-01T00:29:20;19.00;99.90
4548;DHT22;2286;51.570;7.090;2022-08-01T00:31:47;19.00;99.90
4548;DHT22;2286;51.570;7.090;2022-08-01T00:34:14;19.00;99.90
4548;DHT22;2286;51.570;7.090;2022-08-01T00:36:43;19.00;99.90
4548;DHT22;2286;51.570;7.090;2022-08-01T00:39:10;19.00;99.90
4548;DHT22;2286;51.570;7.090;2022-08-01T00:41:37;18.90;99.90
4548;DHT22;2286;51.570;7.090;2022-08-01T00:44:04;18.90;99.90
4548;DHT22;2286;51.570;7.090;2022-08-01T00:46:32;18.90;99.90
4548;DHT22;2286;51.570;7.090;2022-08-01T00:48:59;18.90;99.90
4548;DHT22;2286;51.570;7.090;2022-08-01T00:51:26;18.90;99.90
4548;DHT22;2286;51.570;7.090;2022-08-01T00:53:55;18.90;99.90
4548;DHT22;2286;51.570;7.090;2022-08-01T00:56:24;18.90;99.90
4548;DHT22;2286;51.570;7.090;2022-08-01T00:58:52;18.90;99.90
4548;DHT22;2286;51.570;7.090;2022-08-01T01:01:19;18.90;99.90
4548;DHT22;2286;51.570;7.090;2022-08-01T01:03:47;18.90;99.90
4548;DHT22;2286;51.570;7.090;2022-08-01T01:06:31;18.90;99.90
4548;DHT22;2286;51.570;7.090;2022-08-01T01:09:17;18.90;99.90
4548;DHT22;2286;51.570;7.090;2022-08-01T01:11:51;18.90;99.90
4548;DHT22;2286;51.570;7.090;2022-08-01T01:14:27;18.90;99.90
4548;DHT22;2286;51.570;7.090;2022-08-01T01:16:56;18.90;99.90
4548;DHT22;2286;51.570;7.090;2022-08-01T01:19:30;18.90;99.90
4548;DHT22;2286;51.570;7.090;2022-08-01T01:22:08;18.90;99.90
4548;DHT22;2286;51.570;7.090;2022-08-01T01:24:50;18.90;99.90
4548;DHT22;2286;51.570;7.090;2022-08-01T01:27:29;18.90;99.90
4548;DHT22;2286;51.570;7.090;2022-08-01T01:30:03;18.90;99.90
4548;DHT22;2286;51.570;7.090;2022-08-01T01:32:33;18.80;99.90
4548;DHT22;2286;51.570;7.090;2022-08-01T01:35:04;18.90;99.90
4548;DHT22;2286;51.570;7.090;2022-08-01T01:37:33;18.90;99.90
4548;DHT22;2286;51.570;7.090;2022-08-01T01:40:02;18.90;99.90
4548;DHT22;2286;51.570;7.090;2022-08-01T01:42:30;18.90;99.90
4548;DHT22;2286;51.570;7.090;2022-08-01T01:45:00;18.90;99.90
4548;DHT22;2286;51.570;7.090;2022-08-01T01:47:31;18.90;99.90
4548;DHT22;2286;51.570;7.090;2022-08-01T01:50:00;18.90;99.90
4548;DHT22;2286;51.570;7.090;2022-08-01T01:52:28;18.90;99.90
4548;DHT22;2286;51.570;7.090;2022-08-01T01:54:56;18.90;99.90
4548;DHT22;2286;51.570;7.090;2022-08-01T01:57:25;18.90;99.90
4548;DHT22;2286;51.570;7.090;2022-08-01T01:59:54;18.90;99.90
4548;DHT22;2286;51.570;7.090;2022-08-01T02:02:22;18.90;99.90
4548;DHT22;2286;51.570;7.090;2022-08-01T02:04:53;18.90;99.90
4548;DHT22;2286;51.570;7.090;2022-08-01T02:07:22;18.90;99.90
4548;DHT22;2286;51.570;7.090;2022-08-01T02:09:51;18.90;99.90
4548;DHT22;2286;51.570;7.090;2022-08-01T02:12:19;18.90;99.90
4548;DHT22;2286;51.570;7.090;2022-08-01T02:14:48;18.90;99.90
4548;DHT22;2286;51.570;7.090;2022-08-01T02:17:19;18.90;99.90
4548;DHT22;2286;51.570;7.090;2022-08-01T02:19:47;18.90;99.90
4548;DHT22;2286;51.570;7.090;2022-08-01T02:22:19;18.90;99.90
4548;DHT22;2286;51.570;7.090;2022-08-01T02:24:52;18.90;99.90
4548;DHT22;2286;51.570;7.090;2022-08-01T02:27:25;18.90;99.90
4548;DHT22;2286;51.570;7.090;2022-08-01T02:29:58;18.90;99.90
4548;DHT22;2286;51.570;7.090;2022-08-01T02:32:30;18.90;99.90
4548;DHT22;2286;51.570;7.090;2022-08-01T02:35:00;18.80;99.90
4548;DHT22;2286;51.570;7.090;2022-08-01T02:37:30;18.80;99.90
4548;DHT22;2286;51.570;7.090;2022-08-01T02:39:59;18.80;99.90
4548;DHT22;2286;51.570;7.090;2022-08-01T02:42:27;18.80;99.90
4548;DHT22;2286;51.570;7.090;2022-08-01T02:44:55;18.70;99.90
4548;DHT22;2286;51.570;7.090;2022-08-01T02:47:23;18.70;99.90
4548;DHT22;2286;51.570;7.090;2022-08-01T02:49:52;18.70;99.90
4548;DHT22;2286;51.570;7.090;2022-08-01T02:52:21;18.60;99.90
4548;DHT22;2286;51.570;7.090;2022-08-01T02:54:53;18.60;99.90
4548;DHT22;2286;51.570;7.090;2022-08-01T02:57:21;18.60;99.90
4548;DHT22;2286;51.570;7.090;2022-08-01T02:59:50;18.60;99.90
4548;DHT22;2286;51.570;7.090;2022-08-01T03:02:19;18.60;99.90
4548;DHT22;2286;51.570;7.090;2022-08-01T03:04:47;18.50;99.90
4548;DHT22;2286;51.570;7.090;2022-08-01T03:07:16;18.50;99.90
4548;DHT22;2286;51.570;7.090;2022-08-01T03:09:45;18.40;99.90
4548;DHT22;2286;51.570;7.090;2022-08-01T03:12:16;18.40;99.90
4548;DHT22;2286;51.570;7.090;2022-08-01T03:14:46;18.50;99.90
4548;DHT22;2286;51.570;7.090;2022-08-01T03:17:14;18.50;99.90
4548;DHT22;2286;51.570;7.090;2022-08-01T03:19:44;18.50;99.90
4548;DHT22;2286;51.570;7.090;2022-08-01T03:22:12;18.50;99.90
4548;DHT22;2286;51.570;7.090;2022-08-01T03:24:41;18.50;99.90
4548;DHT22;2286;51.570;7.090;2022-08-01T03:27:10;18.50;99.90
4548;DHT22;2286;51.570;7.090;2022-08-01T03:29:39;18.50;99.90
4548;DHT22;2286;51.570;7.090;2022-08-01T03:32:07;18.50;99.90
4548;DHT22;2286;51.570;7.090;2022-08-01T03:34:36;18.50;99.90
4548;DHT22;2286;51.570;7.090;2022-08-01T03:37:05;18.50;99.90
4548;DHT22;2286;51.570;7.090;2022-08-01T03:39:44;18.50;99.90
4548;DHT22;2286;51.570;7.090;2022-08-01T03:42:17;18.50;99.90
4548;DHT22;2286;51.570;7.090;2022-08-01T03:44:59;18.50;99.90
4548;DHT22;2286;51.570;7.090;2022-08-01T03:47:31;18.50;99.90
4548;DHT22;2286;51.570;7.090;2022-08-01T03:49:59;18.50;99.90
4548;DHT22;2286;51.570;7.090;2022-08-01T03:52:28;18.50;99.90
4548;DHT22;2286;51.570;7.090;2022-08-01T03:54:59;18.50;99.90
4548;DHT22;2286;51.570;7.090;2022-08-01T03:57:28;18.60;99.90
4548;DHT22;2286;51.570;7.090;2022-08-01T03:59:58;18.50;99.90
4548;DHT22;2286;51.570;7.090;2022-08-01T04:02:27;18.60;99.90
4548;DHT22;2286;51.570;7.090;2022-08-01T04:04:54;18.60;99.90
4548;DHT22;2286;51.570;7.090;2022-08-01T04:07:23;18.50;99.90
4548;DHT22;2286;51.570;7.090;2022-08-01T04:09:50;18.50;99.90
4548;DHT22;2286;51.570;7.090;2022-08-01T04:12:17;18.50;99.90
4548;DHT22;2286;51.570;7.090;2022-08-01T04:14:44;18.50;99.90
4548;DHT22;2286;51.570;7.090;2022-08-01T04:17:12;18.50;99.90
4548;DHT22;2286;51.570;7.090;2022-08-01T04:19:40;18.50;99.90
4548;DHT22;2286;51.570;7.090;2022-08-01T04:22:08;18.40;99.90
4548;DHT22;2286;51.570;7.090;2022-08-01T04:24:36;18.40;99.90
4548;DHT22;2286;51.570;7.090;2022-08-01T04:27:08;18.40;99.90
4548;DHT22;2286;51.570;7.090;2022-08-01T04:29:36;18.40;99.90
4548;DHT22;2286;51.570;7.090;2022-08-01T04:32:04;18.40;99.90
4548;DHT22;2286;51.570;7.090;2022-08-01T04:34:34;18.50;99.90
4548;DHT22;2286;51.570;7.090;2022-08-01T04:37:07;18.50;99.90
4548;DHT22;2286;51.570;7.090;2022-08-01T04:39:37;18.50;99.90
4548;DHT22;2286;51.570;7.090;2022-08-01T04:42:06;18.50;99.90
4548;DHT22;2286;51.570;7.090;2022-08-01T04:44:33;18.60;99.90
4548;DHT22;2286;51.570;7.090;2022-08-01T04:47:02;18.60;99.90
4548;DHT22;2286;51.570;7.090;2022-08-01T04:49:31;18.60;99.90
4548;DHT22;2286;51.570;7.090;2022-08-01T04:51:59;18.60;99.90
4548;DHT22;2286;51.570;7.090;2022-08-01T04:54:27;18.60;99.90
4548;DHT22;2286;51.570;7.090;2022-08-01T04:56:54;18.60;99.90
4548;DHT22;2286;51.570;7.090;2022-08-01T04:59:25;18.70;99.90
4548;DHT22;2286;51.570;7.090;2022-08-01T05:02:07;18.70;99.90
4548;DHT22;2286;51.570;7.090;2022-08-01T05:04:35;18.70;99.90
4548;DHT22;2286;51.570;7.090;2022-08-01T05:07:04;18.80;99.90
4548;DHT22;2286;51.570;7.090;2022-08-01T05:09:31;18.70;99.90
4548;DHT22;2286;51.570;7.090;2022-08-01T05:11:58;18.80;99.90
4548;DHT22;2286;51.570;7.090;2022-08-01T05:14:25;18.90;99.90
4548;DHT22;2286;51.570;7.090;2022-08-01T05:16:52;18.90;99.90
4548;DHT22;2286;51.570;7.090;2022-08-01T05:19:19;18.80;99.90
4548;DHT22;2286;51.570;7.090;2022-08-01T05:21:46;18.70;99.90
4548;DHT22;2286;51.570;7.090;2022-08-01T05:24:14;18.70;99.90
4548;DHT22;2286;51.570;7.090;2022-08-01T05:26:41;18.70;99.90
4548;DHT22;2286;51.570;7.090;2022-08-01T05:29:08;18.80;99.90
4548;DHT22;2286;51.570;7.090;2022-08-01T05:31:35;18.80;99.90
4548;DHT22;2286;51.570;7.090;2022-08-01T05:34:02;18.80;99.90
4548;DHT22;2286;51.570;7.090;2022-08-01T05:36:29;18.90;99.90
4548;DHT22;2286;51.570;7.090;2022-08-01T05:38:56;19.00;99.90
4548;DHT22;2286;51.570;7.090;2022-08-01T05:41:24;19.10;99.90
4548;DHT22;2286;51.570;7.090;2022-08-01T05:43:51;19.10;99.90
4548;DHT22;2286;51.570;7.090;2022-08-01T05:46:18;19.10;99.90
4548;DHT22;2286;51.570;7.090;2022-08-01T05:48:45;19.10;99.90
4548;DHT22;2286;51.570;7.090;2022-08-01T05:51:12;19.10;99.90
4548;DHT22;2286;51.570;7.090;2022-08-01T05:53:39;19.10;99.90
4548;DHT22;2286;51.570;7.090;2022-08-01T05:56:06;19.00;99.90
4548;DHT22;2286;51.570;7.090;2022-08-01T05:58:34;19.00;99.90
4548;DHT22;2286;51.570;7.090;2022-08-01T06:01:01;19.00;99.90
4548;DHT22;2286;51.570;7.090;2022-08-01T06:03:28;19.00;99.90
4548;DHT22;2286;51.570;7.090;2022-08-01T06:05:57;19.10;99.90
4548;DHT22;2286;51.570;7.090;2022-08-01T06:08:24;19.20;99.90
4548;DHT22;2286;51.570;7.090;2022-08-01T06:10:51;19.20;99.90
4548;DHT22;2286;51.570;7.090;2022-08-01T06:13:18;19.30;99.90
4548;DHT22;2286;51.570;7.090;2022-08-01T06:15:47;19.40;99.90
4548;DHT22;2286;51.570;7.090;2022-08-01T06:18:14;19.40;99.90
4548;DHT22;2286;51.570;7.090;2022-08-01T06:20:41;19.60;99.90
4548;DHT22;2286;51.570;7.090;2022-08-01T06:23:08;19.50;99.90
4548;DHT22;2286;51.570;7.090;2022-08-01T06:25:35;19.60;99.90
4548;DHT22;2286;51.570;7.090;2022-08-01T06:28:03;19.70;99.90
4548;DHT22;2286;51.570;7.090;2022-08-01T06:30:30;19.80;99.90
4548;DHT22;2286;51.570;7.090;2022-08-01T06:32:58;19.80;99.90
4548;DHT22;2286;51.570;7.090;2022-08-01T06:35:25;20.00;99.90
4548;DHT22;2286;51.570;7.090;2022-08-01T06:37:54;20.00;99.90
4548;DHT22;2286;51.570;7.090;2022-08-01T06:40:20;20.00;99.90
4548;DHT22;2286;51.570;7.090;2022-08-01T06:42:47;20.00;99.90
4548;DHT22;2286;51.570;7.090;2022-08-01T06:45:15;19.90;99.90
4548;DHT22;2286;51.570;7.090;2022-08-01T06:47:43;19.90;99.90
4548;DHT22;2286;51.570;7.090;2022-08-01T06:50:11;20.00;99.90
4548;DHT22;2286;51.570;7.090;2022-08-01T06:52:39;20.00;99.90
4548;DHT22;2286;51.570;7.090;2022-08-01T06:55:07;20.10;99.90
4548;DHT22;2286;51.570;7.090;2022-08-01T06:57:34;20.20;99.90
4548;DHT22;2286;51.570;7.090;2022-08-01T07:00:04;20.30;99.90
4548;DHT22;2286;51.570;7.090;2022-08-01T07:02:32;20.30;99.90
4548;DHT22;2286;51.570;7.090;2022-08-01T07:04:59;20.30;99.90
4548;DHT22;2286;51.570;7.090;2022-08-01T07:07:28;20.40;99.90
4548;DHT22;2286;51.570;7.090;2022-08-01T07:09:54;20.40;99.90
4548;DHT22;2286;51.570;7.090;2022-08-01T07:12:21;20.50;99.90
4548;DHT22;2286;51.570;7.090;2022-08-01T07:14:48;20.60;99.90
4548;DHT22;2286;51.570;7.090;2022-08-01T07:17:15;20.60;99.90
4548;DHT22;2286;51.570;7.090;2022-08-01T07:19:42;20.70;99.90
4548;DHT22;2286;51.570;7.090;2022-08-01T07:22:09;20.60;99.90
4548;DHT22;2286;51.570;7.090;2022-08-01T07:24:37;20.40;99.90
4548;DHT22;2286;51.570;7.090;2022-08-01T07:27:04;20.20;99.90
4548;DHT22;2286;51.570;7.090;2022-08-01T07:29:31;20.20;99.90
4548;DHT22;2286;51.570;7.090;2022-08-01T07:31:59;20.40;99.90
4548;DHT22;2286;51.570;7.090;2022-08-01T07:34:26;20.60;99.90
4548;DHT22;2286;51.570;7.090;2022-08-01T07:36:52;20.60;99.90
4548;DHT22;2286;51.570;7.090;2022-08-01T07:39:19;20.60;99.90
4548;DHT22;2286;51.570;7.090;2022-08-01T07:41:48;20.80;99.90
4548;DHT22;2286;51.570;7.090;2022-08-01T07:44:15;21.00;99.90
4548;DHT22;2286;51.570;7.090;2022-08-01T07:46:42;21.10;99.90
4548;DHT22;2286;51.570;7.090;2022-08-01T07:49:09;21.30;99.90
4548;DHT22;2286;51.570;7.090;2022-08-01T07:51:36;21.40;86.20
4548;DHT22;2286;51.570;7.090;2022-08-01T07:54:03;21.40;99.90
4548;DHT22;2286;51.570;7.090;2022-08-01T07:56:30;21.70;1.00
4548;DHT22;2286;51.570;7.090;2022-08-01T07:58:58;21.90;1.00
4548;DHT22;2286;51.570;7.090;2022-08-01T08:01:25;21.70;1.00
4548;DHT22;2286;51.570;7.090;2022-08-01T08:03:52;21.60;99.90
4548;DHT22;2286;51.570;7.090;2022-08-01T08:06:19;21.70;99.90
4548;DHT22;2286;51.570;7.090;2022-08-01T08:08:47;21.50;1.00
4548;DHT22;2286;51.570;7.090;2022-08-01T08:11:13;21.50;99.90
4548;DHT22;2286;51.570;7.090;2022-08-01T08:13:40;21.50;1.00
4548;DHT22;2286;51.570;7.090;2022-08-01T08:16:08;21.70;1.00
4548;DHT22;2286;51.570;7.090;2022-08-01T08:18:35;21.80;37.60
4548;DHT22;2286;51.570;7.090;2022-08-01T08:21:03;22.00;99.90
4548;DHT22;2286;51.570;7.090;2022-08-01T08:23:30;22.10;99.90
4548;DHT22;2286;51.570;7.090;2022-08-01T08:26:16;22.20;1.00
4548;DHT22;2286;51.570;7.090;2022-08-01T08:28:43;22.40;99.90
4548;DHT22;2286;51.570;7.090;2022-08-01T08:31:11;22.20;1.00
4548;DHT22;2286;51.570;7.090;2022-08-01T08:33:38;22.40;1.00
4548;DHT22;2286;51.570;7.090;2022-08-01T08:36:05;22.30;1.00
4548;DHT22;2286;51.570;7.090;2022-08-01T08:38:32;22.40;99.90
4548;DHT22;2286;51.570;7.090;2022-08-01T08:40:59;22.60;99.90
4548;DHT22;2286;51.570;7.090;2022-08-01T08:43:26;22.80;1.00
4548;DHT22;2286;51.570;7.090;2022-08-01T08:45:53;23.00;99.90
4548;DHT22;2286;51.570;7.090;2022-08-01T08:48:22;23.00;99.90
4548;DHT22;2286;51.570;7.090;2022-08-01T08:50:50;23.10;1.00
4548;DHT22;2286;51.570;7.090;2022-08-01T08:53:18;23.50;99.90
4548;DHT22;2286;51.570;7.090;2022-08-01T08:55:45;23.20;99.90
4548;DHT22;2286;51.570;7.090;2022-08-01T08:58:13;23.30;99.90
4548;DHT22;2286;51.570;7.090;2022-08-01T09:00:41;23.40;57.20
4548;DHT22;2286;51.570;7.090;2022-08-01T09:03:08;23.70;1.00
4548;DHT22;2286;51.570;7.090;2022-08-01T09:05:36;24.00;99.90
4548;DHT22;2286;51.570;7.090;2022-08-01T09:08:06;24.20;1.00
4548;DHT22;2286;51.570;7.090;2022-08-01T09:10:33;24.20;99.90
4548;DHT22;2286;51.570;7.090;2022-08-01T09:13:05;24.10;46.90
4548;DHT22;2286;51.570;7.090;2022-08-01T09:15:40;24.30;99.90
4548;DHT22;2286;51.570;7.090;2022-08-01T09:18:08;24.60;99.90
4548;DHT22;2286;51.570;7.090;2022-08-01T09:20:36;25.00;1.00
4548;DHT22;2286;51.570;7.090;2022-08-01T09:23:03;25.10;1.00
4548;DHT22;2286;51.570;7.090;2022-08-01T09:25:30;24.90;1.00
4548;DHT22;2286;51.570;7.090;2022-08-01T09:28:03;24.70;99.90
4548;DHT22;2286;51.570;7.090;2022-08-01T09:30:37;24.70;1.00
4548;DHT22;2286;51.570;7.090;2022-08-01T09:33:05;24.90;1.00
4548;DHT22;2286;51.570;7.090;2022-08-01T09:35:34;25.00;1.00
4548;DHT22;2286;51.570;7.090;2022-08-01T09:38:15;24.90;1.00
4548;DHT22;2286;51.570;7.090;2022-08-01T09:40:50;24.40;1.00
4548;DHT22;2286;51.570;7.090;2022-08-01T09:43:17;24.20;1.00
4548;DHT22;2286;51.570;7.090;2022-08-01T09:45:44;24.00;1.00
4548;DHT22;2286;51.570;7.090;2022-08-01T09:48:11;24.00;1.00
4548;DHT22;2286;51.570;7.090;2022-08-01T09:50:40;24.10;1.00
4548;DHT22;2286;51.570;7.090;2022-08-01T09:53:07;24.30;1.00
4548;DHT22;2286;51.570;7.090;2022-08-01T09:55:36;24.50;1.00
4548;DHT22;2286;51.570;7.090;2022-08-01T09:58:04;24.80;99.90
4548;DHT22;2286;51.570;7.090;2022-08-01T10:00:31;25.20;99.90
4548;DHT22;2286;51.570;7.090;2022-08-01T10:02:58;25.30;99.90
4548;DHT22;2286;51.570;7.090;2022-08-01T10:05:33;25.40;99.90
4548;DHT22;2286;51.570;7.090;2022-08-01T10:08:03;25.40;99.90
4548;DHT22;2286;51.570;7.090;2022-08-01T10:10:31;25.10;99.90
4548;DHT22;2286;51.570;7.090;2022-08-01T10:12:59;25.10;99.90
4548;DHT22;2286;51.570;7.090;2022-08-01T10:15:27;25.00;1.00
4548;DHT22;2286;51.570;7.090;2022-08-01T10:17:56;24.70;99.90
4548;DHT22;2286;51.570;7.090;2022-08-01T10:20:26;24.50;1.00
4548;DHT22;2286;51.570;7.090;2022-08-01T10:22:54;24.30;99.90
4548;DHT22;2286;51.570;7.090;2022-08-01T10:25:21;24.20;1.00
4548;DHT22;2286;51.570;7.090;2022-08-01T10:27:49;24.10;1.00
4548;DHT22;2286;51.570;7.090;2022-08-01T10:30:21;24.50;1.00
4548;DHT22;2286;51.570;7.090;2022-08-01T10:32:49;25.30;99.90
4548;DHT22;2286;51.570;7.090;2022-08-01T10:35:17;26.20;99.90
4548;DHT22;2286;51.570;7.090;2022-08-01T10:37:45;27.20;99.90
4548;DHT22;2286;51.570;7.090;2022-08-01T10:40:13;27.50;99.90
4548;DHT22;2286;51.570;7.090;2022-08-01T10:42:41;27.70;99.90
4548;DHT22;2286;51.570;7.090;2022-08-01T10:45:09;27.40;99.90
4548;DHT22;2286;51.570;7.090;2022-08-01T10:47:42;27.10;99.90
4548;DHT22;2286;51.570;7.090;2022-08-01T10:50:15;27.20;99.90
4548;DHT22;2286;51.570;7.090;2022-08-01T10:53:09;27.10;99.90
4548;DHT22;2286;51.570;7.090;2022-08-01T10:55:48;27.10;99.90
4548;DHT22;2286;51.570;7.090;2022-08-01T10:58:21;27.30;99.90
4548;DHT22;2286;51.570;7.090;2022-08-01T11:00:48;27.40;99.90
4548;DHT22;2286;51.570;7.090;2022-08-01T11:03:32;27.50;99.90
4548;DHT22;2286;51.570;7.090;2022-08-01T11:06:01;28.20;99.90
4548;DHT22;2286;51.570;7.090;2022-08-01T11:08:30;29.10;99.90
4548;DHT22;2286;51.570;7.090;2022-08-01T11:11:02;30.00;99.90
4548;DHT22;2286;51.570;7.090;2022-08-01T11:14:00;30.40;99.90
4548;DHT22;2286;51.570;7.090;2022-08-01T11:16:28;30.20;99.90
4548;DHT22;2286;51.570;7.090;2022-08-01T11:18:57;30.10;99.90
4548;DHT22;2286;51.570;7.090;2022-08-01T11:21:57;30.40;99.90
4548;DHT22;2286;51.570;7.090;2022-08-01T11:24:54;30.70;99.90
4548;DHT22;2286;51.570;7.090;2022-08-01T11:27:27;31.40;99.90
4548;DHT22;2286;51.570;7.090;2022-08-01T11:30:22;31.80;99.90
4548;DHT22;2286;51.570;7.090;2022-08-01T11:32:53;32.70;99.90
4548;DHT22;2286;51.570;7.090;2022-08-01T11:35:23;33.40;99.90
4548;DHT22;2286;51.570;7.090;2022-08-01T11:37:52;33.40;99.90
4548;DHT22;2286;51.570;7.090;2022-08-01T11:40:23;33.00;99.90
4548;DHT22;2286;51.570;7.090;2022-08-01T11:43:16;33.00;99.90
4548;DHT22;2286;51.570;7.090;2022-08-01T11:45:48;32.50;99.90
4548;DHT22;2286;51.570;7.090;2022-08-01T11:48:19;32.40;99.90
4548;DHT22;2286;51.570;7.090;2022-08-01T11:50:48;31.80;99.90
4548;DHT22;2286;51.570;7.090;2022-08-01T11:53:16;31.40;99.90
4548;DHT22;2286;51.570;7.090;2022-08-01T11:55:46;30.90;99.90
4548;DHT22;2286;51.570;7.090;2022-08-01T11:58:15;30.10;99.90
4548;DHT22;2286;51.570;7.090;2022-08-01T12:00:50;29.50;99.90
4548;DHT22;2286;51.570;7.090;2022-08-01T12:03:23;29.40;99.90
4548;DHT22;2286;51.570;7.090;2022-08-01T12:05:52;29.40;99.90
4548;DHT22;2286;51.570;7.090;2022-08-01T12:08:25;29.20;99.90
4548;DHT22;2286;51.570;7.090;2022-08-01T12:10:53;29.30;99.90
4548;DHT22;2286;51.570;7.090;2022-08-01T12:13:20;29.10;99.90
4548;DHT22;2286;51.570;7.090;2022-08-01T12:15:48;29.30;99.90
4548;DHT22;2286;51.570;7.090;2022-08-01T12:18:16;29.80;99.90
4548;DHT22;2286;51.570;7.090;2022-08-01T12:20:45;30.90;99.90
4548;DHT22;2286;51.570;7.090;2022-08-01T12:23:15;31.90;99.90
4548;DHT22;2286;51.570;7.090;2022-08-01T12:25:42;31.90;99.90
4548;DHT22;2286;51.570;7.090;2022-08-01T12:28:11;32.40;99.90
4548;DHT22;2286;51.570;7.090;2022-08-01T12:30:39;31.90;99.90
4548;DHT22;2286;51.570;7.090;2022-08-01T12:33:08;30.60;99.90
4548;DHT22;2286;51.570;7.090;2022-08-01T12:35:38;29.70;99.90
4548;DHT22;2286;51.570;7.090;2022-08-01T12:38:15;29.30;99.90
4548;DHT22;2286;51.570;7.090;2022-08-01T12:40:44;29.80;99.90
4548;DHT22;2286;51.570;7.090;2022-08-01T12:43:16;30.00;99.90
4548;DHT22;2286;51.570;7.090;2022-08-01T12:45:45;29.90;99.90
4548;DHT22;2286;51.570;7.090;2022-08-01T12:48:13;29.30;99.90
4548;DHT22;2286;51.570;7.090;2022-08-01T12:50:42;28.70;99.90
4548;DHT22;2286;51.570;7.090;2022-08-01T12:53:09;28.30;99.90
4548;DHT22;2286;51.570;7.090;2022-08-01T12:55:46;28.20;99.90
4548;DHT22;2286;51.570;7.090;2022-08-01T12:58:14;28.50;99.90
4548;DHT22;2286;51.570;7.090;2022-08-01T13:00:42;28.70;99.90
4548;DHT22;2286;51.570;7.090;2022-08-01T13:03:11;29.90;99.90
4548;DHT22;2286;51.570;7.090;2022-08-01T13:05:43;32.10;99.90
4548;DHT22;2286;51.570;7.090;2022-08-01T13:08:11;33.30;99.90
4548;DHT22;2286;51.570;7.090;2022-08-01T13:10:38;33.60;99.90
4548;DHT22;2286;51.570;7.090;2022-08-01T13:13:07;34.10;99.90
4548;DHT22;2286;51.570;7.090;2022-08-01T13:15:36;34.70;99.90
4548;DHT22;2286;51.570;7.090;2022-08-01T13:18:23;34.90;99.90
4548;DHT22;2286;51.570;7.090;2022-08-01T13:20:50;34.30;99.90
4548;DHT22;2286;51.570;7.090;2022-08-01T13:23:18;33.30;99.90
4548;DHT22;2286;51.570;7.090;2022-08-01T13:25:51;32.50;99.90
4548;DHT22;2286;51.570;7.090;2022-08-01T13:28:22;31.60;99.90
4548;DHT22;2286;51.570;7.090;2022-08-01T13:30:53;30.70;99.90
4548;DHT22;2286;51.570;7.090;2022-08-01T13:33:20;29.80;99.90
4548;DHT22;2286;51.570;7.090;2022-08-01T13:35:47;29.60;99.90
4548;DHT22;2286;51.570;7.090;2022-08-01T13:38:15;29.50;99.90
4548;DHT22;2286;51.570;7.090;2022-08-01T13:40:42;29.80;99.90
4548;DHT22;2286;51.570;7.090;2022-08-01T13:43:09;29.60;99.90
4548;DHT22;2286;51.570;7.090;2022-08-01T13:45:37;29.00;99.90
4548;DHT22;2286;51.570;7.090;2022-08-01T13:48:05;29.20;99.90
4548;DHT22;2286;51.570;7.090;2022-08-01T13:50:32;29.60;99.90
4548;DHT22;2286;51.570;7.090;2022-08-01T13:52:59;31.30;99.90
4548;DHT22;2286;51.570;7.090;2022-08-01T13:55:26;34.00;99.90
4548;DHT22;2286;51.570;7.090;2022-08-01T13:57:52;34.50;99.90
4548;DHT22;2286;51.570;7.090;2022-08-01T14:00:20;33.30;99.90
4548;DHT22;2286;51.570;7.090;2022-08-01T14:02:48;33.10;99.90
4548;DHT22;2286;51.570;7.090;2022-08-01T14:05:15;32.40;99.90
4548;DHT22;2286;51.570;7.090;2022-08-01T14:07:41;31.70;99.90
4548;DHT22;2286;51.570;7.090;2022-08-01T14:10:10;31.10;99.90
4548;DHT22;2286;51.570;7.090;2022-08-01T14:12:36;31.10;99.90
4548;DHT22;2286;51.570;7.090;2022-08-01T14:15:04;32.70;99.90
4548;DHT22;2286;51.570;7.090;2022-08-01T14:17:32;33.20;99.90
4548;DHT22;2286;51.570;7.090;2022-08-01T14:20:00;33.90;99.90
4548;DHT22;2286;51.570;7.090;2022-08-01T14:22:28;34.80;99.90
4548;DHT22;2286;51.570;7.090;2022-08-01T14:24:55;36.10;99.90
4548;DHT22;2286;51.570;7.090;2022-08-01T14:27:21;36.60;99.90
4548;DHT22;2286;51.570;7.090;2022-08-01T14:29:48;36.70;99.90
4548;DHT22;2286;51.570;7.090;2022-08-01T14:32:15;37.00;99.90
4548;DHT22;2286;51.570;7.090;2022-08-01T14:34:42;37.40;99.90
4548;DHT22;2286;51.570;7.090;2022-08-01T14:37:10;37.70;99.90
4548;DHT22;2286;51.570;7.090;2022-08-01T14:39:37;36.60;99.90
4548;DHT22;2286;51.570;7.090;2022-08-01T14:42:04;36.40;99.90
4548;DHT22;2286;51.570;7.090;2022-08-01T14:44:31;36.40;99.90
4548;DHT22;2286;51.570;7.090;2022-08-01T14:46:58;36.00;99.90
4548;DHT22;2286;51.570;7.090;2022-08-01T14:49:25;35.40;99.90
4548;DHT22;2286;51.570;7.090;2022-08-01T14:51:52;34.00;99.90
4548;DHT22;2286;51.570;7.090;2022-08-01T14:54:20;33.50;99.90
4548;DHT22;2286;51.570;7.090;2022-08-01T14:56:47;34.00;99.90
4548;DHT22;2286;51.570;7.090;2022-08-01T14:59:14;34.10;99.90
4548;DHT22;2286;51.570;7.090;2022-08-01T15:01:40;34.60;99.90
4548;DHT22;2286;51.570;7.090;2022-08-01T15:04:07;34.80;99.90
4548;DHT22;2286;51.570;7.090;2022-08-01T15:06:34;35.10;99.90
4548;DHT22;2286;51.570;7.090;2022-08-01T15:09:01;35.50;99.90
4548;DHT22;2286;51.570;7.090;2022-08-01T15:11:29;35.10;99.90
4548;DHT22;2286;51.570;7.090;2022-08-01T15:13:56;34.30;99.90
4548;DHT22;2286;51.570;7.090;2022-08-01T15:16:40;33.50;99.90
4548;DHT22;2286;51.570;7.090;2022-08-01T15:19:08;33.90;99.90
4548;DHT22;2286;51.570;7.090;2022-08-01T15:21:35;34.30;99.90
4548;DHT22;2286;51.570;7.090;2022-08-01T15:24:01;34.00;99.90
4548;DHT22;2286;51.570;7.090;2022-08-01T15:26:30;33.10;99.90
4548;DHT22;2286;51.570;7.090;2022-08-01T15:28:57;32.80;99.90
4548;DHT22;2286;51.570;7.090;2022-08-01T15:31:23;32.80;99.90
4548;DHT22;2286;51.570;7.090;2022-08-01T15:33:50;32.50;99.90
4548;DHT22;2286;51.570;7.090;2022-08-01T15:36:17;32.10;99.90
4548;DHT22;2286;51.570;7.090;2022-08-01T15:38:44;31.70;99.90
4548;DHT22;2286;51.570;7.090;2022-08-01T15:41:11;32.00;99.90
4548;DHT22;2286;51.570;7.090;2022-08-01T15:43:39;33.10;99.90
4548;DHT22;2286;51.570;7.090;2022-08-01T15:46:06;33.20;99.90
4548;DHT22;2286;51.570;7.090;2022-08-01T15:48:33;33.40;99.90
4548;DHT22;2286;51.570;7.090;2022-08-01T15:51:00;34.10;99.90
4548;DHT22;2286;51.570;7.090;2022-08-01T15:53:26;35.30;99.90
4548;DHT22;2286;51.570;7.090;2022-08-01T15:55:53;35.90;99.90
4548;DHT22;2286;51.570;7.090;2022-08-01T15:58:20;34.50;99.90
4548;DHT22;2286;51.570;7.090;2022-08-01T16:00:49;33.30;99.90
4548;DHT22;2286;51.570;7.090;2022-08-01T16:03:16;32.60;99.90
4548;DHT22;2286;51.570;7.090;2022-08-01T16:05:43;33.80;99.90
4548;DHT22;2286;51.570;7.090;2022-08-01T16:08:11;34.70;99.90
4548;DHT22;2286;51.570;7.090;2022-08-01T16:10:38;34.80;99.90
4548;DHT22;2286;51.570;7.090;2022-08-01T16:13:05;35.50;99.90
4548;DHT22;2286;51.570;7.090;2022-08-01T16:15:32;34.70;99.90